createdAt,value
2017-05-07T00:00:00.270Z,34.92
2017-05-07T00:02:29.331Z,33.16
2017-05-07T00:04:58.372Z,34.28
2017-05-07T00:07:27.446Z,34.68
2017-05-07T00:09:56.480Z,31.46
2017-05-07T00:12:25.544Z,35.54
2017-05-07T00:14:54.577Z,37.66
2017-05-07T00:17:23.735Z,34.66
2017-05-07T00:19:52.806Z,34.44
2017-05-07T00:22:22.601Z,35.38
2017-05-07T00:24:52.389Z,36.94
2017-05-07T00:27:21.456Z,38.56
2017-05-07T00:29:50.485Z,33.10
2017-05-07T00:32:19.555Z,38.16
2017-05-07T00:34:48.609Z,35.68
2017-05-07T00:37:18.408Z,37.26
2017-05-07T00:39:48.189Z,37.40
2017-05-07T00:42:17.293Z,36.16
2017-05-07T00:44:46.359Z,34.26
2017-05-07T00:47:15.401Z,37.68
2017-05-07T00:49:44.446Z,39.12
2017-05-07T00:52:13.523Z,33.14
2017-05-07T00:54:42.577Z,36.64
2017-05-07T00:57:12.377Z,34.48
2017-05-07T00:59:41.421Z,36.24
2017-05-07T01:02:10.478Z,38.04
2017-05-07T01:04:39.591Z,37.54
2017-05-07T01:07:08.788Z,36.00
2017-05-07T01:09:37.817Z,35.90
2017-05-07T01:12:06.921Z,35.78
2017-05-07T01:14:35.975Z,38.22
2017-05-07T01:17:05.773Z,35.70
2017-05-07T01:19:35.692Z,32.54
2017-05-07T01:22:05.469Z,36.06
2017-05-07T01:24:34.523Z,36.54
2017-05-07T01:27:03.562Z,36.36
2017-05-07T01:29:32.622Z,39.04
2017-05-07T01:32:01.669Z,38.14
2017-05-07T01:34:31.592Z,39.78
2017-05-07T01:37:01.379Z,38.50
2017-05-07T01:39:30.437Z,35.58
2017-05-07T01:41:59.481Z,37.58
2017-05-07T01:44:29.274Z,40.44
2017-05-07T01:46:58.399Z,40.98
2017-05-07T01:49:28.211Z,40.00
2017-05-07T01:51:58.012Z,38.64
2017-05-07T01:54:27.078Z,34.40
2017-05-07T01:56:56.130Z,41.94
2017-05-07T01:59:25.180Z,40.14
2017-05-07T02:01:54.300Z,38.98
2017-05-07T02:04:24.083Z,35.92
2017-05-07T02:06:53.145Z,37.94
2017-05-07T02:09:22.194Z,33.72
2017-05-07T02:11:51.261Z,39.94
2017-05-07T02:14:20.298Z,37.46
2017-05-07T02:16:49.355Z,36.52
2017-05-07T02:19:18.502Z,40.76
2017-05-07T02:21:47.548Z,36.44
2017-05-07T02:24:16.605Z,40.12
2017-05-07T02:26:45.652Z,44.04
2017-05-07T02:29:15.569Z,35.92
2017-05-07T02:31:45.357Z,35.68
2017-05-07T02:34:14.441Z,36.64
2017-05-07T02:36:43.479Z,35.72
2017-05-07T02:39:13.280Z,37.86
2017-05-07T02:41:43.212Z,38.40
2017-05-07T02:44:13.009Z,40.88
2017-05-07T02:46:42.793Z,44.34
2017-05-07T02:49:11.857Z,38.66
2017-05-07T02:51:40.901Z,39.22
2017-05-07T02:54:10.706Z,36.66
2017-05-07T02:56:39.743Z,41.14
2017-05-07T02:59:08.801Z,35.64
2017-05-07T03:01:38.589Z,41.02
2017-05-07T03:04:07.719Z,42.50
2017-05-07T03:06:37.504Z,40.54
2017-05-07T03:09:06.571Z,43.74
2017-05-07T03:11:35.645Z,38.74
2017-05-07T03:14:04.737Z,40.12
2017-05-07T03:16:33.776Z,42.98
2017-05-07T03:19:02.829Z,37.52
2017-05-07T03:21:31.899Z,39.34
2017-05-07T03:24:01.693Z,45.16
2017-05-07T03:26:30.750Z,43.98
2017-05-07T03:28:59.821Z,43.72
2017-05-07T03:31:28.861Z,44.22
2017-05-07T03:33:57.934Z,41.18
2017-05-07T03:36:27.017Z,39.72
2017-05-07T03:38:56.065Z,46.56
2017-05-07T03:41:25.893Z,43.68
2017-05-07T03:43:54.953Z,50.12
2017-05-07T03:46:24.020Z,50.36
2017-05-07T03:48:53.071Z,67.28
2017-05-07T03:51:22.871Z,54.50
2017-05-07T03:53:51.899Z,58.62
2017-05-07T03:56:20.954Z,58.54
2017-05-07T03:58:50.022Z,62.84
2017-05-07T04:01:19.146Z,54.78
2017-05-07T04:03:48.963Z,55.30
2017-05-07T04:06:18.765Z,51.46
2017-05-07T04:08:47.817Z,46.02
2017-05-07T04:11:16.880Z,46.30
2017-05-07T04:13:46.681Z,52.34
2017-05-07T04:16:16.586Z,52.32
2017-05-07T04:18:45.640Z,53.46
2017-05-07T04:21:14.689Z,49.02
2017-05-07T04:23:44.481Z,53.10
2017-05-07T04:26:14.297Z,59.54
2017-05-07T04:28:44.110Z,54.50
2017-05-07T04:31:13.164Z,53.60
2017-05-07T04:33:42.221Z,55.72
2017-05-07T04:36:11.265Z,56.88
2017-05-07T04:38:40.326Z,57.98
2017-05-07T04:41:09.498Z,54.08
2017-05-07T04:43:38.566Z,60.84
2017-05-07T04:46:07.634Z,57.02
2017-05-07T04:48:36.677Z,57.78
2017-05-07T04:51:06.465Z,62.20
2017-05-07T04:53:35.521Z,56.74
2017-05-07T04:56:04.580Z,51.08
2017-05-07T04:58:33.623Z,51.70
2017-05-07T05:01:02.771Z,58.74
2017-05-07T05:03:32.529Z,67.72
2017-05-07T05:06:01.594Z,59.60
2017-05-07T05:08:30.629Z,58.80
2017-05-07T05:10:59.766Z,58.00
2017-05-07T05:13:29.526Z,57.72
2017-05-07T05:15:58.568Z,52.74
2017-05-07T05:18:28.394Z,55.02
2017-05-07T05:21:12.349Z,56.28
2017-05-07T05:23:44.298Z,55.62
2017-05-07T05:26:37.920Z,62.94
2017-05-07T05:32:26.301Z,66.58
2017-05-07T05:34:55.331Z,63.94
2017-05-07T05:37:24.386Z,66.52
2017-05-07T05:39:53.492Z,61.50
2017-05-07T05:42:23.294Z,82.24
2017-05-07T05:44:52.325Z,70.52
2017-05-07T05:47:21.489Z,66.22
2017-05-07T05:49:50.529Z,74.46
2017-05-07T05:52:19.595Z,70.56
2017-05-07T05:54:49.496Z,78.02
2017-05-07T05:57:18.546Z,73.20
2017-05-07T05:59:47.622Z,73.58
2017-05-07T06:02:16.680Z,70.32
2017-05-07T06:04:46.500Z,71.24
2017-05-07T06:07:16.297Z,67.82
2017-05-07T06:09:45.338Z,74.38
2017-05-07T06:12:14.414Z,74.88
2017-05-07T06:14:43.462Z,74.44
2017-05-07T06:17:12.505Z,67.62
2017-05-07T06:19:41.566Z,72.96
2017-05-07T06:22:10.666Z,65.94
2017-05-07T06:24:39.721Z,67.12
2017-05-07T06:27:08.859Z,71.34
2017-05-07T06:29:37.971Z,79.32
2017-05-07T06:32:07.742Z,80.48
2017-05-07T06:34:36.809Z,78.46
2017-05-07T06:37:05.862Z,80.34
2017-05-07T06:39:35.650Z,76.88
2017-05-07T06:42:04.782Z,72.60
2017-05-07T06:44:34.557Z,71.86
2017-05-07T06:47:03.600Z,72.36
2017-05-07T06:49:38.313Z,71.30
2017-05-07T06:52:07.361Z,71.90
2017-05-07T06:54:36.483Z,63.84
2017-05-07T06:57:06.295Z,71.18
2017-05-07T06:59:36.097Z,67.92
2017-05-07T07:02:05.202Z,76.14
2017-05-07T07:04:34.997Z,68.34
2017-05-07T07:07:04.053Z,65.16
2017-05-07T07:09:33.117Z,90.22
2017-05-07T07:12:02.890Z,74.88
2017-05-07T07:14:32.008Z,83.20
2017-05-07T07:17:01.790Z,82.26
2017-05-07T07:19:30.857Z,77.10
2017-05-07T07:21:59.903Z,79.52
2017-05-07T07:24:28.977Z,82.40
2017-05-07T07:26:58.097Z,74.04
2017-05-07T07:29:27.913Z,80.12
2017-05-07T07:31:56.940Z,70.22
2017-05-07T07:34:26.231Z,68.72
2017-05-07T07:36:56.001Z,67.72
2017-05-07T07:39:25.045Z,72.28
2017-05-07T07:41:54.269Z,73.66
2017-05-07T07:44:23.595Z,74.70
2017-05-07T07:46:52.658Z,65.32
2017-05-07T07:49:21.700Z,67.00
2017-05-07T07:51:51.516Z,65.12
2017-05-07T07:54:21.320Z,65.00
2017-05-07T07:56:50.385Z,74.06
2017-05-07T07:59:19.461Z,68.36
2017-05-07T08:01:48.511Z,66.72
2017-05-07T08:04:18.324Z,79.20
2017-05-07T08:06:47.420Z,79.28
2017-05-07T08:09:16.502Z,83.86
2017-05-07T08:11:45.538Z,83.04
2017-05-07T08:14:14.598Z,74.94
2017-05-07T08:16:44.385Z,80.42
2017-05-07T08:19:13.445Z,80.54
2017-05-07T08:21:42.502Z,81.02
2017-05-07T08:24:12.300Z,83.76
2017-05-07T08:26:42.073Z,79.06
2017-05-07T08:29:11.141Z,84.58
2017-05-07T08:31:40.177Z,81.20
2017-05-07T08:34:09.313Z,78.28
2017-05-07T08:36:39.088Z,77.94
2017-05-07T08:39:08.200Z,81.72
2017-05-07T08:41:37.264Z,87.20
2017-05-07T08:44:06.351Z,77.98
2017-05-07T08:46:35.404Z,80.46
2017-05-07T08:49:05.221Z,80.04
2017-05-07T08:51:35.007Z,79.02
2017-05-07T08:54:04.038Z,75.06
2017-05-07T08:56:33.095Z,75.46
2017-05-07T08:59:03.025Z,72.20
2017-05-07T09:01:32.105Z,67.68
2017-05-07T09:04:01.914Z,64.24
2017-05-07T09:06:30.970Z,64.08
2017-05-07T09:09:00.010Z,61.62
2017-05-07T09:11:29.834Z,61.72
2017-05-07T09:17:03.968Z,52.22
2017-05-07T09:19:34.497Z,52.22
2017-05-07T09:22:18.445Z,53.98
2017-05-07T09:24:48.275Z,55.86
2017-05-07T09:27:17.357Z,54.14
2017-05-07T09:29:46.400Z,52.78
2017-05-07T09:32:15.531Z,51.36
2017-05-07T09:34:44.609Z,50.52
2017-05-07T09:37:13.668Z,54.18
2017-05-07T09:39:42.742Z,50.98
2017-05-07T09:42:11.822Z,51.42
2017-05-07T09:44:41.589Z,53.56
2017-05-07T09:47:10.634Z,53.16
2017-05-07T09:49:39.682Z,56.92
2017-05-07T09:52:08.724Z,50.32
2017-05-07T09:54:37.773Z,50.86
2017-05-07T09:57:06.821Z,49.86
2017-05-07T09:59:35.905Z,47.72
2017-05-07T10:02:04.948Z,48.36
2017-05-07T10:04:33.981Z,46.08
2017-05-07T10:07:03.034Z,46.92
2017-05-07T10:09:32.110Z,48.54
2017-05-07T10:12:01.158Z,48.94
2017-05-07T10:14:30.973Z,47.26
2017-05-07T10:17:00.756Z,45.64
2017-05-07T10:19:29.825Z,46.52
2017-05-07T10:21:58.903Z,50.10
2017-05-07T10:24:27.939Z,45.92
2017-05-07T10:26:57.041Z,51.78
2017-05-07T10:29:26.149Z,51.54
2017-05-07T10:31:55.969Z,54.72
2017-05-07T10:34:25.737Z,51.72
2017-05-07T10:36:54.811Z,51.80
2017-05-07T10:39:23.951Z,49.70
2017-05-07T10:41:53.066Z,55.46
2017-05-07T10:44:22.853Z,51.64
2017-05-07T10:46:51.917Z,49.06
2017-05-07T10:49:20.953Z,47.44
2017-05-07T10:51:50.811Z,47.42
2017-05-07T10:54:19.864Z,46.34
2017-05-07T10:56:48.910Z,49.40
2017-05-07T10:59:18.080Z,49.38
2017-05-07T11:01:47.128Z,51.56
2017-05-07T11:04:16.291Z,49.44
2017-05-07T11:06:45.381Z,50.88
2017-05-07T11:09:14.443Z,51.84
2017-05-07T11:11:44.225Z,50.18
2017-05-07T11:14:13.292Z,50.08
2017-05-07T11:16:42.335Z,44.70
2017-05-07T11:19:12.129Z,43.34
2017-05-07T11:21:41.226Z,44.88
2017-05-07T11:24:10.383Z,44.82
2017-05-07T11:26:39.408Z,45.24
2017-05-07T11:29:08.441Z,42.00
2017-05-07T11:31:37.504Z,43.16
2017-05-07T11:34:06.543Z,43.64
2017-05-07T11:36:35.706Z,44.44
2017-05-07T11:39:05.498Z,45.46
2017-05-07T11:41:34.565Z,43.34
2017-05-07T11:44:03.649Z,45.66
2017-05-07T11:46:32.710Z,41.16
2017-05-07T11:49:02.482Z,36.94
2017-05-07T11:51:31.561Z,36.10
2017-05-07T11:54:00.705Z,36.68
2017-05-07T11:56:30.525Z,37.76
2017-05-07T11:59:00.329Z,35.78
2017-05-07T12:01:30.142Z,37.16
2017-05-07T12:03:59.233Z,38.80
2017-05-07T12:06:28.339Z,40.82
2017-05-07T12:08:57.377Z,39.12
2017-05-07T12:11:26.645Z,36.82
2017-05-07T12:13:56.425Z,38.90
2017-05-07T12:16:26.230Z,37.56
2017-05-07T12:18:55.305Z,37.42
2017-05-07T12:21:24.380Z,37.86
2017-05-07T12:23:53.457Z,40.68
2017-05-07T12:26:22.529Z,37.62
2017-05-07T12:28:51.545Z,40.52
2017-05-07T12:31:20.610Z,38.16
2017-05-07T12:33:50.409Z,39.78
2017-05-07T12:36:19.467Z,37.00
2017-05-07T12:38:48.732Z,38.58
2017-05-07T12:41:18.616Z,39.22
2017-05-07T12:43:47.653Z,36.62
2017-05-07T12:46:16.706Z,41.74
2017-05-07T12:48:45.754Z,36.20
2017-05-07T12:51:14.814Z,34.30
2017-05-07T12:53:44.628Z,32.98
2017-05-07T12:56:14.405Z,34.64
2017-05-07T12:58:43.449Z,37.88
2017-05-07T13:01:12.516Z,32.86
2017-05-07T13:03:42.305Z,33.66
2017-05-07T13:06:11.385Z,31.18
2017-05-07T13:08:40.446Z,28.62
2017-05-07T13:11:09.589Z,26.10
2017-05-07T13:13:38.658Z,24.50
2017-05-07T13:16:07.700Z,21.94
2017-05-07T13:18:37.498Z,23.04
2017-05-07T13:21:06.589Z,24.14
2017-05-07T13:23:35.680Z,23.12
2017-05-07T13:26:04.716Z,20.54
2017-05-07T13:28:33.865Z,22.62
2017-05-07T13:31:02.905Z,25.26
2017-05-07T13:33:31.965Z,22.94
2017-05-07T13:36:01.774Z,21.30
2017-05-07T13:38:30.845Z,20.94
2017-05-07T13:41:00.100Z,30.08
2017-05-07T13:43:29.878Z,25.44
2017-05-07T13:45:59.357Z,25.68
2017-05-07T13:48:28.485Z,26.44
2017-05-07T13:50:57.548Z,25.50
2017-05-07T13:53:26.599Z,25.92
2017-05-07T13:55:55.683Z,26.48
2017-05-07T13:58:25.467Z,28.80
2017-05-07T14:00:54.533Z,29.70
2017-05-07T14:03:23.621Z,28.38
2017-05-07T14:05:52.698Z,27.18
2017-05-07T14:08:21.740Z,26.58
2017-05-07T14:10:50.816Z,27.00
2017-05-07T14:13:19.860Z,27.36
2017-05-07T14:15:49.676Z,25.74
2017-05-07T14:18:18.755Z,27.36
2017-05-07T14:20:47.863Z,29.50
2017-05-07T14:23:17.668Z,26.80
2017-05-07T14:25:47.476Z,28.68
2017-05-07T14:28:16.554Z,25.96
2017-05-07T14:30:45.581Z,26.44
2017-05-07T14:33:15.385Z,27.04
2017-05-07T14:35:45.167Z,26.76
2017-05-07T14:38:14.243Z,28.76
2017-05-07T14:40:43.281Z,27.84
2017-05-07T14:43:13.074Z,31.22
2017-05-07T14:45:42.158Z,30.32
2017-05-07T14:48:11.883Z,31.00
2017-05-07T14:50:40.910Z,28.96
2017-05-07T14:53:09.997Z,27.32
2017-05-07T14:55:39.052Z,27.06
2017-05-07T14:58:08.105Z,24.08
2017-05-07T15:00:37.145Z,22.94
2017-05-07T15:03:06.201Z,24.32
2017-05-07T15:05:35.280Z,22.88
2017-05-07T15:08:05.070Z,25.98
2017-05-07T15:10:34.118Z,26.08
2017-05-07T15:13:03.149Z,26.54
2017-05-07T15:15:32.969Z,23.76
2017-05-07T15:18:02.759Z,22.76
2017-05-07T15:20:31.838Z,23.72
2017-05-07T15:23:00.880Z,22.54
2017-05-07T15:25:29.936Z,22.86
2017-05-07T15:27:58.985Z,23.94
2017-05-07T15:30:28.062Z,24.64
2017-05-07T15:32:57.839Z,30.86
2017-05-07T15:35:26.898Z,22.66
2017-05-07T15:37:55.948Z,23.16
2017-05-07T15:40:25.736Z,21.90
2017-05-07T15:42:54.782Z,23.88
2017-05-07T15:45:23.829Z,24.68
2017-05-07T15:47:52.894Z,24.12
2017-05-07T15:50:21.949Z,23.00
2017-05-07T15:52:50.985Z,22.02
2017-05-07T15:55:20.052Z,22.90
2017-05-07T15:57:49.098Z,22.12
2017-05-07T16:00:18.188Z,19.66
2017-05-07T16:02:47.420Z,19.98
2017-05-07T16:05:16.544Z,24.18
2017-05-07T16:07:45.620Z,21.20
2017-05-07T16:10:14.663Z,20.38
2017-05-07T16:12:43.804Z,20.86
2017-05-07T16:15:13.587Z,19.04
2017-05-07T16:26:56.733Z,21.86
2017-05-07T16:29:27.305Z,22.42
2017-05-07T16:31:58.729Z,22.12
2017-05-07T16:34:27.630Z,19.52
2017-05-07T16:36:56.417Z,21.08
2017-05-07T16:39:25.230Z,21.94
2017-05-07T16:41:54.030Z,23.90
2017-05-07T16:44:22.837Z,22.46
2017-05-07T16:46:52.380Z,22.18
2017-05-07T16:49:21.322Z,23.06
2017-05-07T16:51:50.118Z,23.60
2017-05-07T16:54:18.934Z,23.68
2017-05-07T16:56:47.732Z,21.16
2017-05-07T16:59:16.548Z,21.60
2017-05-07T17:01:45.345Z,22.02
2017-05-07T17:04:14.153Z,19.82
2017-05-07T17:06:48.705Z,20.62
2017-05-07T17:09:18.269Z,19.76
2017-05-07T17:11:47.074Z,19.36
2017-05-07T17:14:15.887Z,17.74
2017-05-07T17:16:45.456Z,19.50
2017-05-07T17:19:14.294Z,20.76
2017-05-07T17:21:43.108Z,19.78
2017-05-07T17:24:11.905Z,18.82
2017-05-07T17:26:40.726Z,19.32
2017-05-07T17:29:09.767Z,18.30
2017-05-07T17:31:38.830Z,20.06
2017-05-07T17:34:07.866Z,17.36
2017-05-07T17:36:36.943Z,19.54
2017-05-07T17:39:06.039Z,19.48
2017-05-07T17:41:35.105Z,18.68
2017-05-07T17:44:04.140Z,19.22
2017-05-07T17:46:33.205Z,19.70
2017-05-07T17:49:02.253Z,20.60
2017-05-07T17:51:32.061Z,18.14
2017-05-07T17:54:02.006Z,19.44
2017-05-07T17:56:31.081Z,19.08
2017-05-07T17:59:00.902Z,19.04
2017-05-07T18:01:29.957Z,20.70
2017-05-07T18:03:58.995Z,20.38
2017-05-07T18:06:28.070Z,20.22
2017-05-07T18:08:57.869Z,20.66
2017-05-07T18:11:26.935Z,18.88
2017-05-07T18:13:55.986Z,20.72
2017-05-07T18:16:25.032Z,20.86
2017-05-07T18:18:54.097Z,24.50
2017-05-07T18:21:23.142Z,22.00
2017-05-07T18:23:52.940Z,22.38
2017-05-07T18:26:22.180Z,22.00
2017-05-07T18:28:51.964Z,20.34
2017-05-07T18:31:21.743Z,21.96
2017-05-07T18:33:50.908Z,23.36
2017-05-07T18:36:19.953Z,20.42
2017-05-07T18:38:49.102Z,25.52
2017-05-07T18:41:18.192Z,22.46
2017-05-07T18:43:47.300Z,20.36
2017-05-07T18:46:16.332Z,22.48
2017-05-07T18:48:45.449Z,20.76
2017-05-07T18:51:14.544Z,23.96
2017-05-07T18:53:43.681Z,20.10
2017-05-07T18:56:12.718Z,19.98
2017-05-07T18:58:42.520Z,19.22
2017-05-07T19:01:11.621Z,19.26
2017-05-07T19:03:40.691Z,20.16
2017-05-07T19:06:09.735Z,19.88
2017-05-07T19:08:38.965Z,19.96
2017-05-07T19:11:08.015Z,19.72
2017-05-07T19:13:37.812Z,18.64
2017-05-07T19:16:06.981Z,16.50
2017-05-07T19:18:36.050Z,16.08
2017-05-07T19:21:05.188Z,18.10
2017-05-07T19:23:34.238Z,16.70
2017-05-07T19:26:03.405Z,15.64
2017-05-07T19:28:32.494Z,16.26
2017-05-07T19:31:02.298Z,15.56
2017-05-07T19:33:32.083Z,15.16
2017-05-07T19:36:01.145Z,12.64
2017-05-07T19:38:30.198Z,13.62
2017-05-07T19:40:59.275Z,10.46
2017-05-07T19:43:28.327Z,12.94
2017-05-07T19:45:57.405Z,10.56
2017-05-07T19:48:27.218Z,11.70
2017-05-07T19:50:57.038Z,11.54
2017-05-07T19:53:26.084Z,10.64
2017-05-07T19:55:55.110Z,11.00
2017-05-07T19:58:24.907Z,11.56
2017-05-07T20:00:54.705Z,13.28
2017-05-07T20:03:24.023Z,14.78
2017-05-07T20:05:53.609Z,10.82
2017-05-07T20:08:22.673Z,11.18
2017-05-07T20:10:51.723Z,11.30
2017-05-07T20:13:21.530Z,11.10
2017-05-07T20:15:51.306Z,9.86
2017-05-07T20:18:20.402Z,10.06
2017-05-07T20:20:49.445Z,11.62
2017-05-07T20:23:19.371Z,9.52
2017-05-07T20:25:48.433Z,9.56
2017-05-07T20:28:17.490Z,10.52
2017-05-07T20:30:46.796Z,9.34
2017-05-07T20:33:15.836Z,10.34
2017-05-07T20:35:45.630Z,10.12
2017-05-07T20:38:14.727Z,8.78
2017-05-07T20:40:43.819Z,8.70
2017-05-07T20:43:12.851Z,8.88
2017-05-07T20:45:41.890Z,8.94
2017-05-07T20:48:10.959Z,9.46
2017-05-07T20:50:40.049Z,9.42
2017-05-07T20:53:09.217Z,9.62
2017-05-07T20:55:39.007Z,9.80
2017-05-07T20:58:08.037Z,7.82
2017-05-07T21:00:37.089Z,8.98
2017-05-07T21:03:06.129Z,9.90
2017-05-07T21:05:35.166Z,9.08
2017-05-07T21:08:04.222Z,8.84
2017-05-07T21:10:33.275Z,10.32
2017-05-07T21:13:03.110Z,11.48
2017-05-07T21:15:32.145Z,9.90
2017-05-07T21:18:01.213Z,11.06
2017-05-07T21:20:30.254Z,12.20
2017-05-07T21:22:59.309Z,11.94
2017-05-07T21:25:28.422Z,11.50
2017-05-07T21:27:57.570Z,11.90
2017-05-07T21:30:26.591Z,12.80
2017-05-07T21:32:55.671Z,13.98
2017-05-07T21:35:24.725Z,13.40
2017-05-07T21:37:53.811Z,12.22
2017-05-07T21:40:22.854Z,14.88
2017-05-07T21:42:51.885Z,12.18
2017-05-07T21:45:20.958Z,10.76
2017-05-07T21:47:49.997Z,12.02
2017-05-07T21:50:19.073Z,15.02
2017-05-07T21:52:48.125Z,12.84
2017-05-07T21:55:17.202Z,10.16
2017-05-07T21:57:47.075Z,12.20
2017-05-07T22:00:16.180Z,12.14
2017-05-07T22:02:45.301Z,11.56
2017-05-07T22:05:15.114Z,12.98
2017-05-07T22:07:44.912Z,11.90
2017-05-07T22:10:14.030Z,12.56
2017-05-07T22:12:43.818Z,12.44
2017-05-07T22:15:12.878Z,11.44
2017-05-07T22:17:41.933Z,10.68
2017-05-07T22:20:11.725Z,10.82
2017-05-07T22:22:41.524Z,11.42
2017-05-07T22:25:10.582Z,13.94
2017-05-07T22:27:39.743Z,11.12
2017-05-07T22:30:09.657Z,11.58
2017-05-07T22:32:39.417Z,9.42
2017-05-07T22:35:08.481Z,12.84
2017-05-07T22:37:37.529Z,9.52
2017-05-07T22:40:06.623Z,11.05
2017-05-07T22:42:35.654Z,11.97
2017-05-07T22:45:04.725Z,11.77
2017-05-07T22:47:34.521Z,12.73
2017-05-07T22:50:03.678Z,14.05
2017-05-07T22:52:32.748Z,14.68
2017-05-07T22:55:01.817Z,11.72
2017-05-07T22:57:31.734Z,12.38
2017-05-07T23:00:01.601Z,14.45
2017-05-07T23:02:30.656Z,13.97
2017-05-07T23:04:59.701Z,16.42
2017-05-07T23:07:28.773Z,18.38
2017-05-07T23:09:57.826Z,15.97
2017-05-07T23:12:27.676Z,14.45
2017-05-07T23:14:56.702Z,16.40
2017-05-07T23:17:25.775Z,15.68
2017-05-07T23:19:54.937Z,15.92
2017-05-07T23:22:24.007Z,17.78
2017-05-07T23:24:53.060Z,15.42
2017-05-07T23:27:22.125Z,18.60
2017-05-07T23:29:51.215Z,14.57
2017-05-07T23:32:20.285Z,13.68
2017-05-07T23:34:50.085Z,12.13
2017-05-07T23:37:19.117Z,18.50
2017-05-07T23:39:48.181Z,18.48
2017-05-07T23:42:17.301Z,14.88
2017-05-07T23:44:47.103Z,15.85
2017-05-07T23:47:16.885Z,14.08
2017-05-07T23:49:45.957Z,15.52
2017-05-07T23:52:15.010Z,13.85
2017-05-07T23:54:44.803Z,13.25
2017-05-07T23:57:13.851Z,14.93
2017-05-07T23:59:42.909Z,14.47
